Terminal Aerodrome Forecast
Issued by NWS

Home | Current Version | Previous Version | Text Only | Print | Product List | Glossary On
Versions: 1 2 3 4 5 6 7 8 9 10 11 12
000
FTUS44 KTSA 310500
TAFRVS
TAF
KRVS 310520Z 3106/0106 00000KT P6SM OVC100
     FM311600 16006KT P6SM OVC050 PROB30 3116/3118 -RA
     FM311800 16008KT 5SM -RA BR OVC035
     FM312300 16007KT 5SM -RA BR BKN025=

USA.gov is the U.S. government's official web portal to all federal, state and local government web resources and services.